createdAt,value
2019-03-22T00:01:30.687Z,99514.19
2019-03-22T00:04:01.874Z,99520.55
2019-03-22T00:06:32.822Z,99520.11
2019-03-22T00:09:04.403Z,99515.30
2019-03-22T00:11:35.439Z,99513.91
2019-03-22T00:14:06.359Z,99509.66
2019-03-22T00:16:37.242Z,99505.78
2019-03-22T00:19:08.136Z,99509.64
2019-03-22T00:21:39.068Z,99501.89
2019-03-22T00:24:10.260Z,99497.10
2019-03-22T00:26:41.129Z,99500.48
2019-03-22T00:29:12.048Z,99502.21
2019-03-22T00:31:42.957Z,99500.94
2019-03-22T00:34:13.878Z,99500.50
2019-03-22T00:36:44.715Z,99494.82
2019-03-22T00:39:15.861Z,99502.04
2019-03-22T00:41:48.353Z,99497.74
2019-03-22T00:44:19.332Z,99497.72
2019-03-22T00:46:50.189Z,99490.34
2019-03-22T00:49:21.190Z,99494.13
2019-03-22T00:51:52.136Z,99500.52
2019-03-22T00:54:23.215Z,99496.66
2019-03-22T00:56:54.194Z,99488.09
2019-03-22T00:59:25.061Z,99489.45
2019-03-22T01:01:56.027Z,99487.25
2019-03-22T01:04:26.975Z,99486.81
2019-03-22T01:06:58.007Z,99484.23
2019-03-22T01:09:28.956Z,99484.27
2019-03-22T01:12:00.023Z,99477.39
2019-03-22T01:14:30.931Z,99467.48
2019-03-22T01:17:01.910Z,99468.77
2019-03-22T01:19:32.913Z,99475.14
2019-03-22T01:22:04.000Z,99470.44
2019-03-22T01:24:34.966Z,99475.17
2019-03-22T01:27:05.919Z,99477.27
2019-03-22T01:29:36.934Z,99475.83
2019-03-22T01:32:07.896Z,99475.22
2019-03-22T01:34:39.048Z,99477.72
2019-03-22T01:37:10.023Z,99474.25
2019-03-22T01:39:40.937Z,99470.79
2019-03-22T01:42:11.976Z,99467.35
2019-03-22T01:44:42.962Z,99462.61
2019-03-22T01:47:14.024Z,99467.77
2019-03-22T01:49:45.089Z,99465.59
2019-03-22T01:52:16.112Z,99463.39
2019-03-22T01:54:47.148Z,99462.52
2019-03-22T01:57:18.038Z,99461.66
2019-03-22T01:59:48.912Z,99466.38
2019-03-22T02:02:19.925Z,99467.66
2019-03-22T02:04:50.773Z,99465.03
2019-03-22T02:07:21.774Z,99462.83
2019-03-22T02:09:52.826Z,99467.02
2019-03-22T02:12:23.750Z,99470.30
2019-03-22T02:14:54.727Z,99472.84
2019-03-22T02:17:25.739Z,99468.48
2019-03-22T02:19:56.803Z,99462.80
2019-03-22T02:22:27.852Z,99457.19
2019-03-22T02:24:58.716Z,99458.50
2019-03-22T02:27:29.802Z,99460.30
2019-03-22T02:30:00.779Z,99455.61
2019-03-22T02:32:31.743Z,99458.21
2019-03-22T02:35:02.759Z,99453.61
2019-03-22T02:37:33.695Z,99453.61
2019-03-22T02:40:07.232Z,99446.20
2019-03-22T02:42:38.214Z,99449.09
2019-03-22T02:45:11.650Z,99444.80
2019-03-22T02:47:42.676Z,99444.68
2019-03-22T02:50:18.630Z,99448.83
2019-03-22T02:52:47.330Z,99445.72
2019-03-22T02:55:18.364Z,99451.27
2019-03-22T02:57:49.314Z,99445.74
2019-03-22T03:00:20.405Z,99447.48
2019-03-22T03:02:51.313Z,99444.84
2019-03-22T03:05:22.895Z,99441.73
2019-03-22T03:07:54.002Z,99445.88
2019-03-22T03:10:24.978Z,99445.39
2019-03-22T03:12:56.459Z,99448.75
2019-03-22T03:15:27.573Z,99451.25
2019-03-22T03:17:58.567Z,99449.17
2019-03-22T03:20:29.569Z,99449.94
2019-03-22T03:23:00.541Z,99447.78
2019-03-22T03:25:31.523Z,99451.11
2019-03-22T03:28:02.629Z,99452.78
2019-03-22T03:30:34.064Z,99451.84
2019-03-22T03:33:05.309Z,99448.76
2019-03-22T03:35:36.326Z,99455.97
2019-03-22T03:38:07.577Z,99458.42
2019-03-22T03:40:38.595Z,99457.48
2019-03-22T03:43:09.729Z,99459.14
2019-03-22T03:45:40.745Z,99453.53
2019-03-22T03:48:11.734Z,99457.00
2019-03-22T03:50:42.663Z,99460.87
2019-03-22T03:53:13.839Z,99459.94
2019-03-22T03:55:44.857Z,99463.75
2019-03-22T03:58:16.044Z,99472.34
2019-03-22T04:00:47.133Z,99468.01
2019-03-22T04:03:18.089Z,99470.42
2019-03-22T04:05:49.081Z,99464.73
2019-03-22T04:08:20.075Z,99467.25
2019-03-22T04:10:50.972Z,99469.78
2019-03-22T04:13:21.922Z,99465.93
2019-03-22T04:15:52.963Z,99462.91
2019-03-22T04:18:23.911Z,99462.58
2019-03-22T04:20:54.763Z,99454.44
2019-03-22T04:23:25.884Z,99455.64
2019-03-22T04:25:56.833Z,99456.84
2019-03-22T04:28:27.860Z,99466.60
2019-03-22T04:30:58.924Z,99466.98
2019-03-22T04:33:29.893Z,99474.67
2019-03-22T04:36:00.769Z,99471.23
2019-03-22T04:38:31.694Z,99472.22
2019-03-22T04:41:02.550Z,99476.73
2019-03-22T04:43:33.587Z,99469.80
2019-03-22T04:46:05.292Z,99468.55
2019-03-22T04:48:37.908Z,99460.79
2019-03-22T04:51:10.192Z,99468.02
2019-03-22T04:53:44.217Z,99464.44
2019-03-22T04:56:18.653Z,99465.25
2019-03-22T04:58:51.694Z,99464.72
2019-03-22T05:01:24.563Z,99466.83
2019-03-22T05:03:58.866Z,99470.62
2019-03-22T05:06:29.885Z,99465.55
2019-03-22T05:09:01.801Z,99473.41
2019-03-22T05:11:33.239Z,99478.89
2019-03-22T05:14:05.686Z,99480.71
2019-03-22T05:16:42.737Z,99476.95
2019-03-22T05:19:14.682Z,99475.37
2019-03-22T05:21:46.787Z,99479.75
2019-03-22T05:24:19.636Z,99478.14
2019-03-22T05:26:51.732Z,99481.56
2019-03-22T05:29:30.626Z,99478.88
2019-03-22T05:32:04.701Z,99469.84
2019-03-22T05:34:35.699Z,99476.24
2019-03-22T05:37:06.743Z,99477.98
2019-03-22T05:39:40.632Z,99481.11
2019-03-22T05:42:14.805Z,99476.94
2019-03-22T05:44:45.802Z,99478.30
2019-03-22T05:47:19.245Z,99479.66
2019-03-22T05:49:50.159Z,99473.70
2019-03-22T05:52:22.763Z,99481.17
2019-03-22T05:54:53.661Z,99478.75
2019-03-22T05:57:24.635Z,99479.36
2019-03-22T05:59:55.576Z,99483.31
2019-03-22T06:02:26.535Z,99482.53
2019-03-22T06:04:57.550Z,99478.80
2019-03-22T06:07:31.068Z,99478.78
2019-03-22T06:10:02.143Z,99479.64
2019-03-22T06:12:33.095Z,99477.38
2019-03-22T06:15:10.748Z,99485.72
2019-03-22T06:17:51.133Z,99481.30
2019-03-22T06:20:14.784Z,99496.75
2019-03-22T06:22:45.781Z,99490.66
2019-03-22T06:25:16.884Z,99494.81
2019-03-22T06:27:47.824Z,99504.36
2019-03-22T06:30:18.903Z,99505.16
2019-03-22T06:32:49.861Z,99506.80
2019-03-22T06:35:20.889Z,99509.38
2019-03-22T06:37:51.803Z,99508.85
2019-03-22T06:40:22.694Z,99511.83
2019-03-22T06:42:53.665Z,99514.92
2019-03-22T06:45:24.616Z,99515.45
2019-03-22T06:47:55.686Z,99512.53
2019-03-22T06:50:26.647Z,99511.38
2019-03-22T06:52:57.481Z,99513.65
2019-03-22T06:55:28.400Z,99509.48
2019-03-22T06:57:59.348Z,99507.95
2019-03-22T07:00:30.458Z,99514.56
2019-03-22T07:03:02.025Z,99515.11
2019-03-22T07:05:33.024Z,99516.05
2019-03-22T07:08:04.085Z,99511.80
2019-03-22T07:10:35.008Z,99513.13
2019-03-22T07:13:06.242Z,99508.00
2019-03-22T07:15:37.215Z,99505.84
2019-03-22T07:18:08.068Z,99502.30
2019-03-22T07:20:38.944Z,99503.47
2019-03-22T07:23:09.896Z,99498.98
2019-03-22T07:25:40.824Z,99494.03
2019-03-22T07:28:11.818Z,99501.98
2019-03-22T07:30:43.005Z,99499.67
2019-03-22T07:33:13.978Z,99498.95
2019-03-22T07:35:45.096Z,99503.89
2019-03-22T07:38:16.068Z,99505.88
2019-03-22T07:40:47.103Z,99505.92
2019-03-22T07:43:17.990Z,99506.04
2019-03-22T07:45:49.154Z,99511.38
2019-03-22T07:48:20.071Z,99510.63
2019-03-22T07:50:51.096Z,99503.58
2019-03-22T07:53:22.410Z,99501.56
2019-03-22T07:55:53.446Z,99497.50
2019-03-22T07:58:24.609Z,99499.55
2019-03-22T08:00:55.605Z,99497.66
2019-03-22T08:03:26.754Z,99504.22
2019-03-22T08:05:57.692Z,99496.08
2019-03-22T08:08:28.779Z,99490.94
2019-03-22T08:10:59.660Z,99494.80
2019-03-22T08:13:30.620Z,99487.27
2019-03-22T08:16:01.670Z,99482.94
2019-03-22T08:18:32.681Z,99477.69
2019-03-22T08:21:03.696Z,99481.48
2019-03-22T08:23:34.751Z,99471.59
2019-03-22T08:26:05.782Z,99476.20
2019-03-22T08:28:36.742Z,99476.52
2019-03-22T08:31:08.166Z,99483.28
2019-03-22T08:33:39.213Z,99479.35
2019-03-22T08:36:10.300Z,99474.89
2019-03-22T08:38:41.263Z,99476.69
2019-03-22T08:41:12.243Z,99474.52
2019-03-22T08:43:43.409Z,99472.67
2019-03-22T08:46:14.384Z,99471.31
2019-03-22T08:48:45.786Z,99474.56
2019-03-22T08:51:16.710Z,99466.92
2019-03-22T08:53:55.114Z,99466.64
2019-03-22T08:56:20.466Z,99460.84
2019-03-22T08:58:51.449Z,99459.09
2019-03-22T09:01:22.500Z,99462.23
2019-03-22T09:03:53.699Z,99462.36
2019-03-22T09:06:24.684Z,99461.64
2019-03-22T09:08:55.891Z,99459.36
2019-03-22T09:11:27.158Z,99456.66
2019-03-22T09:13:58.465Z,99448.11
2019-03-22T09:16:30.816Z,99446.09
2019-03-22T09:19:01.949Z,99447.31
2019-03-22T09:21:32.886Z,99447.83
2019-03-22T09:24:04.003Z,99447.81
2019-03-22T09:26:47.119Z,99441.92
2019-03-22T09:29:07.643Z,99435.86
2019-03-22T09:31:38.716Z,99441.42
2019-03-22T09:34:09.817Z,99433.86
2019-03-22T09:36:40.856Z,99428.34
2019-03-22T09:39:11.796Z,99426.17
2019-03-22T09:41:42.956Z,99424.19
2019-03-22T09:44:13.824Z,99414.57
2019-03-22T09:46:44.852Z,99417.69
2019-03-22T09:49:15.779Z,99414.11
2019-03-22T09:51:46.905Z,99413.71
2019-03-22T09:54:18.035Z,99403.18
2019-03-22T09:56:49.009Z,99401.23
2019-03-22T09:59:20.235Z,99398.05
2019-03-22T10:01:51.330Z,99399.38
2019-03-22T10:04:22.342Z,99392.43
2019-03-22T10:06:53.284Z,99389.73
2019-03-22T10:09:24.283Z,99390.72
2019-03-22T10:11:55.303Z,99391.70
2019-03-22T10:14:26.236Z,99383.88
2019-03-22T10:16:57.505Z,99384.28
2019-03-22T10:19:28.481Z,99382.91
2019-03-22T10:21:59.526Z,99383.00
2019-03-22T10:24:30.425Z,99380.76
2019-03-22T10:27:01.571Z,99383.20
2019-03-22T10:29:33.137Z,99384.99
2019-03-22T10:32:04.140Z,99376.91
2019-03-22T10:34:35.030Z,99376.94
2019-03-22T10:37:06.054Z,99372.42
2019-03-22T10:39:36.987Z,99369.30
2019-03-22T10:42:08.038Z,99368.07
2019-03-22T10:44:39.551Z,99360.23
2019-03-22T10:47:10.767Z,99356.72
2019-03-22T10:49:42.256Z,99349.38
2019-03-22T10:52:13.480Z,99342.16
2019-03-22T10:54:44.520Z,99349.23
2019-03-22T10:57:15.547Z,99345.14
2019-03-22T10:59:46.654Z,99340.66
2019-03-22T11:02:17.678Z,99341.28
2019-03-22T11:04:48.647Z,99340.28
2019-03-22T11:07:19.842Z,99335.02
2019-03-22T11:09:50.842Z,99335.02
2019-03-22T11:12:21.946Z,99337.08
2019-03-22T11:14:52.893Z,99333.13
2019-03-22T11:17:23.891Z,99323.11
2019-03-22T11:20:01.339Z,99327.91
2019-03-22T11:22:32.406Z,99324.92
2019-03-22T11:25:04.950Z,99321.86
2019-03-22T11:27:37.488Z,99320.14
2019-03-22T11:30:12.207Z,99322.53
2019-03-22T11:32:43.960Z,99314.73
2019-03-22T11:35:15.162Z,99310.30
2019-03-22T11:37:46.185Z,99309.90
2019-03-22T11:40:20.495Z,99313.28
2019-03-22T11:42:51.766Z,99302.24
2019-03-22T11:45:24.686Z,99297.63
2019-03-22T11:47:56.041Z,99293.82
2019-03-22T11:50:31.340Z,99295.10
2019-03-22T11:53:02.426Z,99294.71
2019-03-22T11:55:33.794Z,99293.77
2019-03-22T11:58:06.431Z,99287.59
2019-03-22T12:00:37.665Z,99285.66
2019-03-22T12:03:08.798Z,99281.48
2019-03-22T12:05:44.562Z,99276.70
2019-03-22T12:08:15.720Z,99281.48
2019-03-22T12:10:46.918Z,99273.63
2019-03-22T12:13:18.201Z,99262.28
2019-03-22T12:15:49.281Z,99260.64
2019-03-22T12:18:20.706Z,99265.55
2019-03-22T12:20:52.464Z,99260.45
2019-03-22T12:23:24.185Z,99258.41
2019-03-22T12:25:57.572Z,99260.73
2019-03-22T12:28:31.273Z,99248.30
2019-03-22T12:31:02.531Z,99246.63
2019-03-22T12:33:33.777Z,99236.98
2019-03-22T12:36:04.965Z,99235.05
2019-03-22T12:38:39.180Z,99234.11
2019-03-22T12:41:10.634Z,99216.45
2019-03-22T12:43:41.781Z,99220.64
2019-03-22T12:46:12.992Z,99220.64
2019-03-22T12:48:43.990Z,99208.13
2019-03-22T12:51:15.173Z,99204.13
2019-03-22T12:53:46.245Z,99206.23
2019-03-22T12:56:17.318Z,99206.23
2019-03-22T12:58:48.417Z,99206.69
2019-03-22T13:01:19.467Z,99202.99
2019-03-22T13:03:50.563Z,99199.58
2019-03-22T13:06:22.011Z,99199.38
2019-03-22T13:08:53.287Z,99199.38
2019-03-22T13:11:24.388Z,99191.75
2019-03-22T13:13:57.714Z,99195.05
2019-03-22T13:16:31.715Z,99192.71
2019-03-22T13:19:02.915Z,99185.91
2019-03-22T13:21:34.002Z,99185.30
2019-03-22T13:24:05.537Z,99179.05
2019-03-22T13:26:36.587Z,99173.45
2019-03-22T13:29:10.830Z,99165.05
2019-03-22T13:31:41.914Z,99163.83
2019-03-22T13:34:15.847Z,99163.63
2019-03-22T13:36:48.559Z,99160.53
2019-03-22T13:39:19.694Z,99154.92
2019-03-22T13:41:51.781Z,99154.92
2019-03-22T13:44:24.411Z,99143.97
2019-03-22T13:46:56.932Z,99146.16
2019-03-22T13:49:33.109Z,99143.60
2019-03-22T13:52:07.070Z,99137.22
2019-03-22T13:54:38.138Z,99142.47
2019-03-22T13:57:11.099Z,99143.91
2019-03-22T13:59:42.206Z,99135.70
2019-03-22T14:02:13.190Z,99137.86
2019-03-22T14:04:45.694Z,99138.05
2019-03-22T14:07:17.032Z,99136.02
2019-03-22T14:09:47.971Z,99132.03
2019-03-22T14:12:19.016Z,99128.58
2019-03-22T14:14:50.052Z,99124.98
2019-03-22T14:17:25.507Z,99120.23
2019-03-22T14:19:56.697Z,99122.66
2019-03-22T14:22:27.974Z,99123.47
2019-03-22T14:24:59.165Z,99126.05
2019-03-22T14:27:30.336Z,99119.09
2019-03-22T14:30:01.433Z,99118.17
2019-03-22T14:32:32.492Z,99113.11
2019-03-22T14:35:04.440Z,99115.09
2019-03-22T14:37:35.493Z,99111.77
2019-03-22T14:40:08.126Z,99106.17
2019-03-22T14:42:39.208Z,99105.38
2019-03-22T14:45:11.403Z,99105.65
2019-03-22T14:47:42.824Z,99094.97
2019-03-22T14:50:13.959Z,99094.97
2019-03-22T14:52:45.061Z,99084.17
2019-03-22T14:55:16.175Z,99082.27
2019-03-22T14:57:49.326Z,99073.81
2019-03-22T15:00:20.198Z,99075.33
2019-03-22T15:02:51.422Z,99070.11
2019-03-22T15:05:22.627Z,99062.16
2019-03-22T15:07:54.010Z,99063.08
2019-03-22T15:10:25.099Z,99063.08
2019-03-22T15:12:56.079Z,99075.83
2019-03-22T15:15:28.680Z,99065.77
2019-03-22T15:18:04.436Z,99063.23
2019-03-22T15:20:39.815Z,99057.30
2019-03-22T15:23:24.962Z,99056.82
2019-03-22T15:26:03.592Z,99050.83
2019-03-22T15:28:48.345Z,99050.83
2019-03-22T15:31:26.884Z,99054.77
2019-03-22T15:33:59.971Z,99054.77
2019-03-22T15:36:44.366Z,99070.25
2019-03-22T15:39:24.100Z,99062.73
2019-03-22T15:41:55.446Z,99062.73
2019-03-22T15:44:26.493Z,99061.58
2019-03-22T15:46:57.412Z,99060.92
2019-03-22T15:49:28.304Z,99065.42
2019-03-22T15:51:59.346Z,99059.39
2019-03-22T15:54:30.270Z,99058.67
2019-03-22T15:57:01.967Z,99059.33
2019-03-22T15:59:32.985Z,99061.67
2019-03-22T16:02:04.260Z,99064.54
2019-03-22T16:04:35.286Z,99055.89
2019-03-22T16:07:06.844Z,99069.58
2019-03-22T16:09:37.766Z,99058.75
2019-03-22T16:12:08.809Z,99054.77
2019-03-22T16:14:39.734Z,99053.94
2019-03-22T16:17:10.631Z,99055.74
2019-03-22T16:19:41.732Z,99056.12
2019-03-22T16:22:12.742Z,99052.60
2019-03-22T16:24:43.813Z,99055.13
2019-03-22T16:27:14.732Z,99053.44
2019-03-22T16:29:49.918Z,99059.22
2019-03-22T16:32:20.984Z,99051.23
2019-03-22T16:34:52.180Z,99055.22
2019-03-22T16:37:23.040Z,99052.09
2019-03-22T16:40:01.188Z,99054.28
2019-03-22T16:42:34.179Z,99046.98
2019-03-22T16:45:09.263Z,99052.93
2019-03-22T16:47:40.499Z,99045.40
2019-03-22T16:50:21.264Z,99059.34
2019-03-22T16:52:55.369Z,99055.48
2019-03-22T16:55:28.082Z,99054.63
2019-03-22T16:58:01.866Z,99060.13
2019-03-22T17:00:32.943Z,99059.33
2019-03-22T17:03:05.480Z,99060.30
2019-03-22T17:05:36.638Z,99060.85
2019-03-22T17:08:07.689Z,99058.98
2019-03-22T17:10:42.259Z,99061.25
2019-03-22T17:13:16.747Z,99064.54
2019-03-22T17:15:47.798Z,99062.36
2019-03-22T17:18:19.315Z,99059.05
2019-03-22T17:20:50.661Z,99052.63
2019-03-22T17:23:21.721Z,99051.20
2019-03-22T17:25:52.747Z,99052.23
2019-03-22T17:28:23.782Z,99056.61
2019-03-22T17:30:54.851Z,99052.20
2019-03-22T17:33:25.889Z,99056.83
2019-03-22T17:35:57.212Z,99063.05
2019-03-22T17:38:28.240Z,99060.72
2019-03-22T17:40:59.574Z,99059.62
2019-03-22T17:43:31.182Z,99061.56
2019-03-22T17:46:02.380Z,99060.70
2019-03-22T17:48:33.738Z,99063.99
2019-03-22T17:51:04.846Z,99059.08
2019-03-22T17:53:35.906Z,99062.91
2019-03-22T17:56:06.871Z,99065.44
2019-03-22T17:58:37.842Z,99059.19
2019-03-22T18:01:08.992Z,99067.76
2019-03-22T18:03:39.938Z,99063.39
2019-03-22T18:06:10.924Z,99069.98
2019-03-22T18:08:41.882Z,99068.58
2019-03-22T18:11:13.060Z,99073.59
2019-03-22T18:13:44.020Z,99071.23
2019-03-22T18:16:15.065Z,99078.18
2019-03-22T18:18:46.033Z,99076.80
2019-03-22T18:21:16.962Z,99080.98
2019-03-22T18:23:47.978Z,99079.95
2019-03-22T18:26:19.440Z,99080.81
2019-03-22T18:28:50.454Z,99078.09
2019-03-22T18:31:23.097Z,99074.88
2019-03-22T18:33:54.247Z,99083.80
2019-03-22T18:36:25.751Z,99083.69
2019-03-22T18:38:58.423Z,99084.80
2019-03-22T18:41:29.355Z,99085.25
2019-03-22T18:44:00.363Z,99081.91
2019-03-22T18:46:31.334Z,99081.99
2019-03-22T18:49:02.261Z,99087.23
2019-03-22T18:51:33.328Z,99090.62
2019-03-22T18:54:04.375Z,99098.04
2019-03-22T18:56:35.327Z,99094.30
2019-03-22T18:59:07.002Z,99098.25
2019-03-22T19:01:37.931Z,99095.13
2019-03-22T19:04:12.007Z,99099.48
2019-03-22T19:06:42.988Z,99101.89
2019-03-22T19:09:14.009Z,99095.86
2019-03-22T19:11:44.997Z,99104.11
2019-03-22T19:14:15.942Z,99100.16
2019-03-22T19:16:47.020Z,99101.29
2019-03-22T19:19:17.991Z,99098.55
2019-03-22T19:21:49.298Z,99099.59
2019-03-22T19:24:22.427Z,99095.88
2019-03-22T19:26:53.761Z,99098.38
2019-03-22T19:29:24.742Z,99097.70
2019-03-22T19:31:55.751Z,99098.56
2019-03-22T19:34:29.443Z,99097.56
2019-03-22T19:37:00.334Z,99096.44
2019-03-22T19:39:31.250Z,99095.73
2019-03-22T19:42:02.265Z,99098.83
2019-03-22T19:44:53.988Z,99106.06
2019-03-22T19:47:25.170Z,99107.77
2019-03-22T19:50:00.342Z,99108.78
2019-03-22T19:52:31.602Z,99100.19
2019-03-22T19:55:02.565Z,99111.53
2019-03-22T19:57:33.977Z,99117.17
2019-03-22T20:00:07.766Z,99113.01
2019-03-22T20:02:40.594Z,99114.81
2019-03-22T20:05:13.796Z,99110.59
2019-03-22T20:07:44.917Z,99107.28
2019-03-22T20:10:15.967Z,99104.80
2019-03-22T20:12:52.705Z,99106.27
2019-03-22T20:15:24.369Z,99113.31
2019-03-22T20:17:56.782Z,99111.36
2019-03-22T20:20:28.024Z,99112.13
2019-03-22T20:23:02.364Z,99112.03
2019-03-22T20:25:33.552Z,99111.04
2019-03-22T20:28:04.632Z,99102.48
2019-03-22T20:30:35.650Z,99109.52
2019-03-22T20:33:07.041Z,99106.96
2019-03-22T20:35:38.016Z,99110.12
2019-03-22T20:38:10.081Z,99110.67
2019-03-22T20:40:41.048Z,99112.91
2019-03-22T20:43:12.017Z,99116.52
2019-03-22T20:45:43.600Z,99120.59
2019-03-22T20:48:14.830Z,99119.86
2019-03-22T20:50:48.137Z,99120.16
2019-03-22T20:53:22.523Z,99115.61
2019-03-22T21:00:13.821Z,99116.35
2019-03-22T21:02:46.012Z,99116.56
2019-03-22T21:05:26.955Z,99114.96
2019-03-22T21:07:51.776Z,99117.70
2019-03-22T21:10:26.006Z,99116.73
2019-03-22T21:13:03.680Z,99120.28
2019-03-22T21:15:36.605Z,99116.06
2019-03-22T21:18:07.945Z,99124.53
2019-03-22T21:20:38.970Z,99125.83
2019-03-22T21:23:11.517Z,99122.48
2019-03-22T21:25:43.416Z,99120.88
2019-03-22T21:28:15.148Z,99120.02
2019-03-22T21:30:47.062Z,99117.48
2019-03-22T21:33:19.108Z,99116.63
2019-03-22T21:35:53.106Z,99111.34
2019-03-22T21:38:32.503Z,99112.64
2019-03-22T21:41:05.621Z,99111.45
2019-03-22T21:43:36.627Z,99109.45
2019-03-22T21:46:07.683Z,99113.86
2019-03-22T21:48:38.830Z,99117.48
2019-03-22T21:51:09.940Z,99114.12
2019-03-22T21:53:41.003Z,99116.58
2019-03-22T21:56:12.312Z,99106.94
2019-03-22T22:01:39.951Z,99107.01
2019-03-22T22:04:11.679Z,99115.33
2019-03-22T22:06:42.655Z,99111.08
2019-03-22T22:09:13.650Z,99114.47
2019-03-22T22:11:53.382Z,99116.19
2019-03-22T22:14:24.371Z,99108.47
2019-03-22T22:17:04.821Z,99110.91
2019-03-22T22:19:39.063Z,99109.66
2019-03-22T22:22:09.960Z,99109.36
2019-03-22T22:24:40.904Z,99105.71
2019-03-22T22:27:15.493Z,99102.84
2019-03-22T22:29:47.593Z,99105.05
2019-03-22T22:32:18.850Z,99106.83
2019-03-22T22:34:49.830Z,99105.17
2019-03-22T22:37:20.855Z,99104.77
2019-03-22T22:39:55.430Z,99103.55
2019-03-22T22:42:26.397Z,99105.39
2019-03-22T22:44:59.200Z,99109.41
2019-03-22T22:47:30.271Z,99104.73
2019-03-22T22:50:01.361Z,99103.93
2019-03-22T22:52:32.432Z,99105.34
2019-03-22T22:55:03.375Z,99099.45
2019-03-22T22:57:34.319Z,99103.85
2019-03-22T23:00:16.785Z,99104.38
2019-03-22T23:02:48.103Z,99098.84
2019-03-22T23:05:19.069Z,99090.68
2019-03-22T23:07:49.935Z,99098.94
2019-03-22T23:10:20.818Z,99097.27
2019-03-22T23:12:51.843Z,99099.45
2019-03-22T23:15:22.869Z,99097.80
2019-03-22T23:17:53.841Z,99097.05
2019-03-22T23:20:24.807Z,99097.11
2019-03-22T23:22:55.763Z,99095.38
2019-03-22T23:25:26.668Z,99094.57
2019-03-22T23:27:57.861Z,99104.48
2019-03-22T23:30:28.891Z,99105.83
2019-03-22T23:33:00.133Z,99103.69
2019-03-22T23:35:31.266Z,99104.59
2019-03-22T23:38:02.303Z,99109.39
2019-03-22T23:40:33.202Z,99105.12
2019-03-22T23:43:04.152Z,99102.55
2019-03-22T23:45:35.311Z,99107.72
2019-03-22T23:48:06.272Z,99109.44
2019-03-22T23:50:37.418Z,99109.91
2019-03-22T23:53:08.280Z,99109.48
2019-03-22T23:55:39.255Z,99107.33
2019-03-22T23:58:10.200Z,99104.70
